Springfield, OH (45501)

3:40 AM EST on March 03, 2015 (GMT -0500)
Snyder Park | Change Station
CLOSE
Current Station
Personal Weather Station
Location: Springfield, OH
Elevation: 919 ft
Nearby Weather Stations
Active Advisory: Freezing Rain Advisory

Elev 919 ft 39.93 °N, 83.85 °W | Updated 9 seconds ago

Clear
Clear
24.3 °F
Feels Like 24 °F
N
1.5
Wind Variable Wind from ESE
Gusts 2.3 mph

Today
High -- | Low -- °F
--% Chance of Precip.
Yesterday
High -- | Low -- °F
Precip. -- in
7:06 AM 6:29 PM
Waxing Gibbous, 95% visible
Pressure 30.30 in
Visibility 7.0 miles
Clouds Clear
Windchill 24 °F
Dew Point 17 °F
Humidity 73%
Rainfall 0.00 in
Snow Depth Not available.
UV 0 out of 12
Pollen 1.20 out of 12
Air Quality Not available.
Flu Activity Not available.
METAR KSGH 030656Z AUTO 09006KT 7SM CLR M07/M11 A3026 RMK AO2 T10721105 SLP260

More Conditions Fewer Conditions

Pressure 30.30 in
Visibility 7.0 miles
Clouds Clear
Windchill 24 °F
Dew Point 17 °F
Humidity 73%
Rainfall 0.00 in
Snow Depth Not available.
UV 0 out of 12
Pollen 1.20 out of 12
Air Quality Not available.
Flu Activity Not available.
METAR KSGH 030656Z AUTO 09006KT 7SM CLR M07/M11 A3026 RMK AO2 T10721105 SLP260

More Conditions Fewer Conditions

10-Day Weather Forecast

Almanac

Astronomy

Mar. 03, 2015 Rise Set
Actual Time
Civil Twilight
Nautical Twilight
Astronomical Twilight
Moon
Length of Visible Light
Length of Day
Tomorrow will be .
, % of the Moon is Illuminated

Today's Extremes

State Highs State Lows

Community

WunderPhotos

Upload Photos

1,802,075 photos uploaded!

WunderBlogs® & News

Nearby

Air Quality

  Air Quality AQ Index Pollutant
Not available.

Snow Depth

Station Depth Elevation

Earthquake Activity

City Distance Mag. Time & Date
Minimum magnitude displayed is 2.5.

Coastal Water Temperatures

Place Temperature

Nearby Weather Stations

Freezing Rain Advisory
Statement as of 9:55 PM EST on March 02, 2015

... Freezing Rain Advisory remains in effect from 7 am to 1 PM EST
Tuesday...

* hazard types... light ice accumulation.

* Accumulations... ice accumulations from a trace to five
hundredths of an inch.

* Timing... areas of light freezing rain will spread across the
area during the morning hours... changing to rain by noon.

* Impacts... light amounts of icing will cause some roads and
sidewalks to become slippery. Use caution when outdoors as
areas that look wet may be icy. If you must drive... be
cautious as you may encounter ice on roads.

* Temperatures... rising from the 20s around sunrise into the
lower and mid 30s by noon.

Precautionary/preparedness actions...

A Freezing Rain Advisory means that periods of freezing rain or
freezing drizzle will cause travel difficulties. Be prepared for
slippery roads. Slow down and use caution while driving.